AAL732 KJFK-KJAC
Flight info
| Callsign | AAL732 |
|---|---|
| Flight time | N/A |
| Altitude | 34000 |
| Route | COATE Q436 RAAKK HHIPP SNOWW TVC WISCN TIGHE SMERF KP06C KU03W KU84Q |
| Aircraft | B738/M-SDE1E2E3FGHIJ2J3J4J5M1RWXYZ/LB1D1 |
Departure
| Time | 2026-05-09 18:36 |
|---|---|
| Airport | John F. Kennedy International Airport (KJFK) |
Arrival
| Time | N/A |
|---|---|
| Airport | Jackson Hole Airport (KJAC) |
| Time | Latitude | Longitude | Altitude | Speed | Heading |
|---|---|---|---|---|---|
| 2026-05-09 18:11 | 40.63988 | -73.78226 | 19 ft | 0 kts | 65° |
| 2026-05-09 18:21 | 40.63987 | -73.78226 | 20 ft | 0 kts | 65° |
| 2026-05-09 18:22 | 40.63984 | -73.78237 | 20 ft | 2 kts | 67° |
| 2026-05-09 18:23 | 40.63978 | -73.78257 | 20 ft | 2 kts | 71° |
| 2026-05-09 18:23 | 40.63973 | -73.78278 | 20 ft | 2 kts | 77° |
| 2026-05-09 18:23 | 40.63970 | -73.78299 | 20 ft | 2 kts | 84° |
| 2026-05-09 18:23 | 40.63970 | -73.78321 | 23 ft | 2 kts | 97° |
| 2026-05-09 18:24 | 40.63974 | -73.78342 | 20 ft | 2 kts | 117° |
| 2026-05-09 18:24 | 40.63983 | -73.78360 | 20 ft | 2 kts | 138° |
| 2026-05-09 18:24 | 40.63995 | -73.78371 | 22 ft | 1 kts | 151° |
| 2026-05-09 18:25 | 40.63998 | -73.78373 | 22 ft | 0 kts | 152° |
| 2026-05-09 18:26 | 40.63996 | -73.78372 | 22 ft | 3 kts | 153° |
| 2026-05-09 18:27 | 40.63946 | -73.78336 | 20 ft | 12 kts | 150° |
| 2026-05-09 18:27 | 40.63899 | -73.78302 | 20 ft | 11 kts | 161° |
| 2026-05-09 18:27 | 40.63798 | -73.78282 | 20 ft | 11 kts | 173° |
| 2026-05-09 18:27 | 40.63724 | -73.78270 | 20 ft | 11 kts | 172° |
| 2026-05-09 18:28 | 40.63652 | -73.78259 | 20 ft | 10 kts | 173° |
| 2026-05-09 18:28 | 40.63602 | -73.78251 | 20 ft | 6 kts | 176° |
| 2026-05-09 18:28 | 40.63583 | -73.78255 | 20 ft | 0 kts | 196° |
| 2026-05-09 18:29 | 40.63577 | -73.78257 | 20 ft | 7 kts | 198° |
| 2026-05-09 18:29 | 40.63479 | -73.78317 | 20 ft | 17 kts | 192° |
| 2026-05-09 18:30 | 40.63428 | -73.78279 | 21 ft | 9 kts | 116° |
| 2026-05-09 18:30 | 40.63373 | -73.78158 | 21 ft | 22 kts | 121° |
| 2026-05-09 18:30 | 40.63329 | -73.77964 | 20 ft | 22 kts | 83° |
| 2026-05-09 18:30 | 40.63402 | -73.77793 | 22 ft | 22 kts | 40° |
| 2026-05-09 18:31 | 40.63529 | -73.77691 | 20 ft | 21 kts | 30° |
| 2026-05-09 18:31 | 40.63654 | -73.77593 | 19 ft | 21 kts | 31° |
| 2026-05-09 18:31 | 40.63776 | -73.77498 | 19 ft | 20 kts | 31° |
| 2026-05-09 18:31 | 40.63894 | -73.77407 | 20 ft | 19 kts | 30° |
| 2026-05-09 18:32 | 40.64007 | -73.77318 | 20 ft | 19 kts | 30° |
| 2026-05-09 18:32 | 40.64118 | -73.77232 | 20 ft | 18 kts | 31° |
| 2026-05-09 18:32 | 40.64235 | -73.77138 | 20 ft | 21 kts | 31° |
| 2026-05-09 18:32 | 40.64356 | -73.77042 | 20 ft | 20 kts | 30° |
| 2026-05-09 18:33 | 40.64484 | -73.76989 | 19 ft | 19 kts | 1° |
| 2026-05-09 18:33 | 40.64601 | -73.76915 | 20 ft | 19 kts | 31° |
| 2026-05-09 18:33 | 40.64712 | -73.76828 | 19 ft | 18 kts | 31° |
| 2026-05-09 18:33 | 40.64819 | -73.76745 | 21 ft | 18 kts | 30° |
| 2026-05-09 18:34 | 40.64921 | -73.76666 | 20 ft | 17 kts | 30° |
| 2026-05-09 18:34 | 40.65020 | -73.76589 | 20 ft | 16 kts | 30° |
| 2026-05-09 18:34 | 40.65116 | -73.76515 | 20 ft | 16 kts | 30° |
| 2026-05-09 18:34 | 40.65143 | -73.76431 | 20 ft | 8 kts | 110° |
| 2026-05-09 18:35 | 40.65087 | -73.76364 | 21 ft | 16 kts | 144° |
| 2026-05-09 18:35 | 40.65000 | -73.76374 | 21 ft | 0 kts | 211° |
| 2026-05-09 18:35 | 40.64998 | -73.76376 | 21 ft | 0 kts | 211° |
| 2026-05-09 18:35 | 40.64995 | -73.76378 | 21 ft | 2 kts | 210° |
| 2026-05-09 18:36 | 40.64798 | -73.76530 | 21 ft | 68 kts | 211° |
| 2026-05-09 18:36 | 40.64205 | -73.76994 | 20 ft | 129 kts | 211° |
| 2026-05-09 18:36 | 40.63284 | -73.77704 | 112 ft | 172 kts | 211° |
| 2026-05-09 18:36 | 40.62212 | -73.78529 | 729 ft | 185 kts | 210° |
| 2026-05-09 18:37 | 40.61100 | -73.79390 | 1488 ft | 179 kts | 214° |
| 2026-05-09 18:37 | 40.60054 | -73.80301 | 1927 ft | 180 kts | 214° |
| 2026-05-09 18:37 | 40.59008 | -73.81173 | 2169 ft | 180 kts | 214° |
| 2026-05-09 18:37 | 40.57941 | -73.82038 | 2247 ft | 180 kts | 213° |
| 2026-05-09 18:38 | 40.56760 | -73.82541 | 2192 ft | 182 kts | 178° |
| 2026-05-09 18:38 | 40.55681 | -73.81833 | 2888 ft | 177 kts | 136° |
| 2026-05-09 18:38 | 40.55190 | -73.80328 | 3387 ft | 194 kts | 98° |
| 2026-05-09 18:40 | 40.61476 | -73.66495 | 5426 ft | 302 kts | 57° |
| 2026-05-09 18:40 | 40.62655 | -73.64206 | 6129 ft | 303 kts | 57° |
| 2026-05-09 18:40 | 40.63854 | -73.61895 | 6742 ft | 308 kts | 57° |
| 2026-05-09 18:41 | 40.65075 | -73.59559 | 7344 ft | 311 kts | 57° |
| 2026-05-09 18:41 | 40.66312 | -73.57194 | 7966 ft | 315 kts | 57° |
| 2026-05-09 18:41 | 40.67140 | -73.55615 | 8372 ft | 318 kts | 57° |
| 2026-05-09 18:41 | 40.68396 | -73.53205 | 9011 ft | 320 kts | 57° |
| 2026-05-09 18:42 | 40.69661 | -73.50761 | 9597 ft | 325 kts | 57° |
| 2026-05-09 18:42 | 40.70939 | -73.48286 | 10179 ft | 328 kts | 57° |
| 2026-05-09 18:42 | 40.72241 | -73.45744 | 10411 ft | 345 kts | 57° |
| 2026-05-09 18:42 | 40.73658 | -73.43079 | 10544 ft | 364 kts | 48° |
| 2026-05-09 18:43 | 40.75722 | -73.41073 | 10666 ft | 377 kts | 19° |
| 2026-05-09 18:43 | 40.78296 | -73.40389 | 10810 ft | 381 kts | 353° |
| 2026-05-09 18:43 | 40.80827 | -73.41213 | 11140 ft | 372 kts | 326° |
| 2026-05-09 18:43 | 40.82756 | -73.43321 | 11726 ft | 353 kts | 299° |
| 2026-05-09 18:44 | 40.83722 | -73.46185 | 12385 ft | 336 kts | 274° |
| 2026-05-09 18:44 | 40.83784 | -73.49236 | 13001 ft | 334 kts | 268° |
| 2026-05-09 18:44 | 40.84173 | -73.52307 | 13604 ft | 343 kts | 280° |
| 2026-05-09 18:44 | 40.84627 | -73.54313 | 13977 ft | 346 kts | 283° |
| 2026-05-09 18:45 | 40.84809 | -73.55035 | 14097 ft | 347 kts | 284° |
| 2026-05-09 18:45 | 40.85618 | -73.58061 | 14639 ft | 350 kts | 285° |
| 2026-05-09 18:45 | 40.86454 | -73.61100 | 15178 ft | 353 kts | 285° |
| 2026-05-09 18:45 | 40.87289 | -73.64166 | 15719 ft | 355 kts | 285° |
| 2026-05-09 18:46 | 40.88113 | -73.67255 | 16268 ft | 358 kts | 284° |
| 2026-05-09 18:46 | 40.88929 | -73.70371 | 16785 ft | 361 kts | 284° |
| 2026-05-09 18:46 | 40.89746 | -73.73535 | 17321 ft | 364 kts | 284° |
| 2026-05-09 18:46 | 40.90559 | -73.76717 | 17812 ft | 367 kts | 284° |
| 2026-05-09 18:47 | 40.91375 | -73.79926 | 18326 ft | 370 kts | 284° |
| 2026-05-09 18:47 | 40.92194 | -73.83162 | 18773 ft | 373 kts | 284° |
| 2026-05-09 18:47 | 40.93009 | -73.86389 | 19184 ft | 376 kts | 284° |
| 2026-05-09 18:47 | 40.93840 | -73.89691 | 19584 ft | 380 kts | 284° |
| 2026-05-09 18:48 | 40.94677 | -73.93018 | 19998 ft | 383 kts | 284° |
| 2026-05-09 18:48 | 40.95520 | -73.96372 | 20473 ft | 385 kts | 283° |
| 2026-05-09 18:48 | 40.96367 | -73.99749 | 20878 ft | 388 kts | 283° |
| 2026-05-09 18:48 | 40.97221 | -74.03156 | 21269 ft | 391 kts | 283° |
| 2026-05-09 18:49 | 40.98080 | -74.06591 | 21651 ft | 395 kts | 283° |
| 2026-05-09 18:49 | 40.98944 | -74.10051 | 22043 ft | 398 kts | 283° |
| 2026-05-09 18:49 | 40.99815 | -74.13542 | 22449 ft | 400 kts | 283° |
| 2026-05-09 18:49 | 41.00689 | -74.17052 | 22841 ft | 403 kts | 283° |
| 2026-05-09 18:50 | 41.01571 | -74.20597 | 23209 ft | 407 kts | 283° |
| 2026-05-09 18:50 | 41.02457 | -74.24166 | 23560 ft | 410 kts | 283° |
| 2026-05-09 18:50 | 41.03347 | -74.27754 | 23910 ft | 411 kts | 283° |
| 2026-05-09 18:50 | 41.04238 | -74.31348 | 24307 ft | 411 kts | 283° |
| 2026-05-09 18:51 | 41.05126 | -74.34940 | 24665 ft | 411 kts | 283° |
| 2026-05-09 18:51 | 41.06018 | -74.38552 | 24984 ft | 413 kts | 283° |
| 2026-05-09 18:51 | 41.06910 | -74.42172 | 25325 ft | 414 kts | 283° |
| 2026-05-09 18:51 | 41.07791 | -74.45753 | 25653 ft | 415 kts | 283° |
| 2026-05-09 18:52 | 41.08685 | -74.49393 | 25992 ft | 416 kts | 283° |
| 2026-05-09 18:52 | 41.08986 | -74.50619 | 26101 ft | 416 kts | 283° |
| 2026-05-09 18:52 | 41.09507 | -74.52740 | 26289 ft | 416 kts | 283° |
| 2026-05-09 18:52 | 41.10403 | -74.56400 | 26601 ft | 418 kts | 283° |
| 2026-05-09 18:53 | 41.11301 | -74.60070 | 26898 ft | 419 kts | 283° |
| 2026-05-09 18:53 | 41.12200 | -74.63753 | 27184 ft | 420 kts | 282° |
| 2026-05-09 18:53 | 41.13105 | -74.67444 | 27465 ft | 422 kts | 283° |
| 2026-05-09 18:53 | 41.14222 | -74.71073 | 27730 ft | 429 kts | 291° |
| 2026-05-09 18:54 | 41.15701 | -74.74541 | 28054 ft | 432 kts | 294° |
| 2026-05-09 18:54 | 41.17222 | -74.77964 | 28511 ft | 429 kts | 294° |
| 2026-05-09 18:54 | 41.18714 | -74.81316 | 28984 ft | 425 kts | 294° |
| 2026-05-09 18:54 | 41.20207 | -74.84691 | 29376 ft | 424 kts | 294° |
| 2026-05-09 18:55 | 41.21690 | -74.88069 | 29698 ft | 423 kts | 293° |
| 2026-05-09 18:55 | 41.23168 | -74.91460 | 29975 ft | 424 kts | 293° |
| 2026-05-09 18:55 | 41.24641 | -74.94852 | 30288 ft | 422 kts | 293° |
| 2026-05-09 18:55 | 41.26103 | -74.98222 | 30675 ft | 418 kts | 293° |
| 2026-05-09 18:56 | 41.27548 | -75.01559 | 31057 ft | 415 kts | 293° |
| 2026-05-09 18:56 | 41.28983 | -75.04878 | 31396 ft | 413 kts | 293° |
| 2026-05-09 18:56 | 41.30411 | -75.08188 | 31710 ft | 411 kts | 293° |
| 2026-05-09 18:56 | 41.31830 | -75.11480 | 32016 ft | 410 kts | 293° |
| 2026-05-09 18:57 | 41.33227 | -75.14722 | 32334 ft | 408 kts | 293° |
| 2026-05-09 18:57 | 41.34630 | -75.17983 | 32647 ft | 406 kts | 293° |
| 2026-05-09 18:57 | 41.36030 | -75.21239 | 32952 ft | 404 kts | 293° |
| 2026-05-09 18:57 | 41.37424 | -75.24488 | 33254 ft | 402 kts | 293° |
| 2026-05-09 18:58 | 41.38809 | -75.27716 | 33552 ft | 401 kts | 293° |
| 2026-05-09 18:58 | 41.40186 | -75.30930 | 33842 ft | 399 kts | 293° |
| 2026-05-09 18:58 | 41.41564 | -75.34152 | 33903 ft | 402 kts | 293° |
| 2026-05-09 18:59 | 41.44339 | -75.40649 | 33913 ft | 404 kts | 293° |
| 2026-05-09 18:59 | 41.47101 | -75.47124 | 33896 ft | 398 kts | 292° |
| 2026-05-09 19:00 | 41.48211 | -75.50215 | 33913 ft | 391 kts | 285° |
| 2026-05-09 19:00 | 41.51085 | -75.60329 | 33902 ft | 389 kts | 285° |
| 2026-05-09 19:01 | 41.53009 | -75.67079 | 33909 ft | 389 kts | 285° |
| 2026-05-09 19:01 | 41.54939 | -75.73825 | 33921 ft | 389 kts | 285° |
| 2026-05-09 19:02 | 41.56877 | -75.80604 | 33909 ft | 391 kts | 285° |
| 2026-05-09 19:02 | 41.58813 | -75.87403 | 33901 ft | 393 kts | 285° |
| 2026-05-09 19:03 | 41.60745 | -75.94250 | 33899 ft | 395 kts | 285° |
| 2026-05-09 19:03 | 41.62667 | -76.01091 | 33893 ft | 397 kts | 285° |
| 2026-05-09 19:04 | 41.64610 | -76.08019 | 33876 ft | 399 kts | 285° |
| 2026-05-09 19:04 | 41.66559 | -76.14981 | 33886 ft | 400 kts | 285° |
| 2026-05-09 19:05 | 41.68512 | -76.21977 | 33874 ft | 402 kts | 285° |
| 2026-05-09 19:05 | 41.70482 | -76.28985 | 33877 ft | 403 kts | 286° |
| 2026-05-09 19:06 | 41.72447 | -76.35952 | 33868 ft | 403 kts | 286° |
| 2026-05-09 19:06 | 41.74419 | -76.42969 | 33868 ft | 402 kts | 286° |
| 2026-05-09 19:07 | 41.75730 | -76.47649 | 33865 ft | 401 kts | 286° |
| 2026-05-09 19:07 | 41.77292 | -76.53241 | 33869 ft | 400 kts | 286° |
| 2026-05-09 19:08 | 41.79227 | -76.60229 | 33858 ft | 399 kts | 286° |
| 2026-05-09 19:08 | 41.81146 | -76.67191 | 33863 ft | 398 kts | 286° |
| 2026-05-09 19:09 | 41.83060 | -76.74151 | 33868 ft | 397 kts | 286° |
| 2026-05-09 19:09 | 41.84968 | -76.81108 | 33858 ft | 397 kts | 286° |
| 2026-05-09 19:10 | 41.86871 | -76.88057 | 33849 ft | 397 kts | 286° |
| 2026-05-09 19:10 | 41.88759 | -76.94981 | 33834 ft | 398 kts | 286° |
| 2026-05-09 19:11 | 41.90646 | -77.01958 | 33843 ft | 398 kts | 286° |
| 2026-05-09 19:11 | 41.92531 | -77.08958 | 33843 ft | 399 kts | 286° |
| 2026-05-09 19:12 | 41.94415 | -77.15968 | 33850 ft | 400 kts | 286° |
| 2026-05-09 19:12 | 41.96301 | -77.23005 | 33841 ft | 400 kts | 286° |
| 2026-05-09 19:13 | 41.98184 | -77.30049 | 33842 ft | 400 kts | 286° |
| 2026-05-09 19:13 | 42.00054 | -77.37060 | 33854 ft | 400 kts | 286° |
| 2026-05-09 19:14 | 42.01938 | -77.44111 | 33856 ft | 401 kts | 287° |
| 2026-05-09 19:14 | 42.03223 | -77.48827 | 33845 ft | 401 kts | 287° |
| 2026-05-09 19:15 | 42.04739 | -77.54375 | 33845 ft | 401 kts | 287° |
| 2026-05-09 19:15 | 42.06654 | -77.61409 | 33848 ft | 400 kts | 287° |
| 2026-05-09 19:16 | 42.08547 | -77.68397 | 33851 ft | 399 kts | 287° |
| 2026-05-09 19:16 | 42.10446 | -77.75433 | 33842 ft | 399 kts | 287° |
| 2026-05-09 19:17 | 42.12337 | -77.82459 | 33845 ft | 399 kts | 287° |
| 2026-05-09 19:17 | 42.14224 | -77.89494 | 33850 ft | 398 kts | 287° |
| 2026-05-09 19:18 | 42.16103 | -77.96517 | 33857 ft | 398 kts | 287° |
| 2026-05-09 19:18 | 42.17967 | -78.03508 | 33843 ft | 399 kts | 287° |
| 2026-05-09 19:19 | 42.19841 | -78.10553 | 33845 ft | 399 kts | 287° |
| 2026-05-09 19:19 | 42.21713 | -78.17610 | 33831 ft | 399 kts | 287° |
| 2026-05-09 19:20 | 42.23580 | -78.24668 | 33844 ft | 399 kts | 287° |
| 2026-05-09 19:20 | 42.25412 | -78.31744 | 33822 ft | 399 kts | 286° |
| 2026-05-09 19:21 | 42.27170 | -78.38846 | 33824 ft | 399 kts | 286° |
| 2026-05-09 19:21 | 42.28924 | -78.45961 | 33810 ft | 400 kts | 286° |
| 2026-05-09 19:22 | 42.30092 | -78.50690 | 33802 ft | 400 kts | 286° |
| 2026-05-09 19:22 | 42.31512 | -78.56440 | 33801 ft | 400 kts | 286° |
| 2026-05-09 19:23 | 42.33270 | -78.63577 | 33794 ft | 400 kts | 286° |
| 2026-05-09 19:23 | 42.35023 | -78.70711 | 33792 ft | 400 kts | 286° |
| 2026-05-09 19:24 | 42.36769 | -78.77843 | 33791 ft | 399 kts | 286° |
| 2026-05-09 19:24 | 42.38508 | -78.84963 | 33781 ft | 398 kts | 286° |
| 2026-05-09 19:25 | 42.40298 | -78.92035 | 33780 ft | 398 kts | 291° |
| 2026-05-09 19:25 | 42.42650 | -78.98815 | 33771 ft | 397 kts | 292° |
| 2026-05-09 19:26 | 42.45034 | -79.05550 | 33784 ft | 396 kts | 292° |
| 2026-05-09 19:26 | 42.47402 | -79.12290 | 33774 ft | 396 kts | 292° |
| 2026-05-09 19:27 | 42.49738 | -79.18991 | 33765 ft | 396 kts | 292° |
| 2026-05-09 19:27 | 42.52079 | -79.25736 | 33777 ft | 395 kts | 292° |
| 2026-05-09 19:28 | 42.54416 | -79.32491 | 33778 ft | 395 kts | 292° |
| 2026-05-09 19:28 | 42.56747 | -79.39242 | 33772 ft | 395 kts | 292° |
| 2026-05-09 19:29 | 42.59078 | -79.46012 | 33778 ft | 395 kts | 292° |
| 2026-05-09 19:29 | 42.60243 | -79.49402 | 33779 ft | 395 kts | 292° |
| 2026-05-09 19:30 | 42.62455 | -79.55849 | 33780 ft | 396 kts | 292° |
| 2026-05-09 19:30 | 42.64384 | -79.61485 | 33794 ft | 396 kts | 292° |
| 2026-05-09 19:31 | 42.67077 | -79.69370 | 33788 ft | 395 kts | 292° |
| 2026-05-09 19:31 | 42.69389 | -79.76155 | 33783 ft | 395 kts | 292° |
| 2026-05-09 19:32 | 42.71319 | -79.81835 | 33781 ft | 395 kts | 292° |
| 2026-05-09 19:32 | 42.73602 | -79.88569 | 33777 ft | 394 kts | 292° |
| 2026-05-09 19:33 | 42.75892 | -79.95338 | 33778 ft | 393 kts | 292° |
| 2026-05-09 19:33 | 42.78171 | -80.02095 | 33768 ft | 392 kts | 292° |
| 2026-05-09 19:34 | 42.80446 | -80.08855 | 33767 ft | 392 kts | 292° |
| 2026-05-09 19:34 | 42.82709 | -80.15595 | 33763 ft | 391 kts | 292° |
| 2026-05-09 19:35 | 42.84969 | -80.22343 | 33763 ft | 391 kts | 292° |
| 2026-05-09 19:35 | 42.87207 | -80.29044 | 33761 ft | 390 kts | 292° |
| 2026-05-09 19:36 | 42.89467 | -80.35825 | 33748 ft | 390 kts | 292° |
| 2026-05-09 19:36 | 42.91695 | -80.42529 | 33749 ft | 390 kts | 292° |
| 2026-05-09 19:37 | 42.93193 | -80.47045 | 33754 ft | 391 kts | 292° |
| 2026-05-09 19:37 | 42.94919 | -80.52258 | 33748 ft | 391 kts | 292° |
| 2026-05-09 19:38 | 42.97157 | -80.59031 | 33740 ft | 391 kts | 292° |
| 2026-05-09 19:38 | 42.99392 | -80.65814 | 33733 ft | 392 kts | 292° |
| 2026-05-09 19:39 | 43.01625 | -80.72606 | 33723 ft | 392 kts | 292° |
| 2026-05-09 19:39 | 43.03841 | -80.79364 | 33716 ft | 392 kts | 292° |
| 2026-05-09 19:40 | 43.06069 | -80.86178 | 33708 ft | 393 kts | 292° |
| 2026-05-09 19:40 | 43.08295 | -80.93000 | 33700 ft | 392 kts | 292° |
| 2026-05-09 19:41 | 43.10515 | -80.99823 | 33704 ft | 392 kts | 292° |
| 2026-05-09 19:41 | 43.12728 | -81.06639 | 33702 ft | 391 kts | 292° |
| 2026-05-09 19:42 | 43.14927 | -81.13432 | 33700 ft | 390 kts | 292° |
| 2026-05-09 19:42 | 43.17117 | -81.20215 | 33696 ft | 389 kts | 292° |
| 2026-05-09 19:43 | 43.19285 | -81.26944 | 33698 ft | 388 kts | 292° |
| 2026-05-09 19:43 | 43.21456 | -81.33700 | 33696 ft | 386 kts | 292° |
| 2026-05-09 19:44 | 43.23619 | -81.40452 | 33693 ft | 385 kts | 292° |
| 2026-05-09 19:44 | 43.25044 | -81.44909 | 33687 ft | 385 kts | 292° |
| 2026-05-09 19:45 | 43.26723 | -81.50167 | 33685 ft | 384 kts | 292° |
| 2026-05-09 19:45 | 43.28865 | -81.56894 | 33688 ft | 384 kts | 291° |
| 2026-05-09 19:46 | 43.30997 | -81.63604 | 33683 ft | 383 kts | 291° |
| 2026-05-09 19:46 | 43.33126 | -81.70324 | 33679 ft | 383 kts | 291° |
| 2026-05-09 19:47 | 43.35251 | -81.77049 | 33675 ft | 384 kts | 291° |
| 2026-05-09 19:47 | 43.37382 | -81.83807 | 33675 ft | 385 kts | 291° |
| 2026-05-09 19:48 | 43.39497 | -81.90536 | 33671 ft | 387 kts | 291° |
| 2026-05-09 19:48 | 43.41633 | -81.97346 | 33673 ft | 388 kts | 291° |
| 2026-05-09 19:49 | 43.43774 | -82.04191 | 33680 ft | 390 kts | 291° |
| 2026-05-09 19:49 | 43.45924 | -82.11080 | 33676 ft | 392 kts | 291° |
| 2026-05-09 19:50 | 43.48077 | -82.18001 | 33678 ft | 394 kts | 291° |
| 2026-05-09 19:50 | 43.50233 | -82.24948 | 33674 ft | 395 kts | 291° |
| 2026-05-09 19:51 | 43.52381 | -82.31886 | 33665 ft | 395 kts | 291° |
| 2026-05-09 19:51 | 43.54533 | -82.38858 | 33661 ft | 395 kts | 291° |
| 2026-05-09 19:52 | 43.55970 | -82.43522 | 33653 ft | 394 kts | 291° |
| 2026-05-09 19:52 | 43.57642 | -82.48963 | 33651 ft | 393 kts | 291° |
| 2026-05-09 19:53 | 43.59759 | -82.55864 | 33647 ft | 392 kts | 291° |
| 2026-05-09 19:53 | 43.61880 | -82.62801 | 33651 ft | 391 kts | 291° |
| 2026-05-09 19:54 | 43.63991 | -82.69721 | 33649 ft | 391 kts | 291° |
| 2026-05-09 19:54 | 43.66096 | -82.76637 | 33654 ft | 390 kts | 291° |
| 2026-05-09 19:55 | 43.68307 | -82.83485 | 33660 ft | 392 kts | 296° |
| 2026-05-09 19:56 | 43.72287 | -82.93380 | 33668 ft | 393 kts | 296° |
| 2026-05-09 19:56 | 43.74931 | -82.99943 | 33668 ft | 394 kts | 296° |
| 2026-05-09 19:57 | 43.77584 | -83.06581 | 33668 ft | 395 kts | 296° |
| 2026-05-09 19:57 | 43.80231 | -83.13239 | 33664 ft | 395 kts | 296° |
| 2026-05-09 19:58 | 43.82882 | -83.19927 | 33658 ft | 396 kts | 296° |
| 2026-05-09 19:58 | 43.85538 | -83.26640 | 33662 ft | 397 kts | 296° |
| 2026-05-09 19:59 | 43.88190 | -83.33362 | 33665 ft | 397 kts | 296° |
| 2026-05-09 19:59 | 43.90834 | -83.40077 | 33639 ft | 394 kts | 296° |
| 2026-05-09 20:00 | 43.91965 | -83.42955 | 33643 ft | 392 kts | 296° |
| 2026-05-09 20:00 | 43.94558 | -83.49564 | 33652 ft | 388 kts | 296° |
| 2026-05-09 20:01 | 43.97128 | -83.56130 | 33644 ft | 386 kts | 296° |
| 2026-05-09 20:01 | 43.99682 | -83.62673 | 33647 ft | 385 kts | 296° |
| 2026-05-09 20:02 | 44.02226 | -83.69205 | 33649 ft | 384 kts | 296° |
| 2026-05-09 20:02 | 44.04772 | -83.75756 | 33647 ft | 385 kts | 296° |
| 2026-05-09 20:03 | 44.08601 | -83.85634 | 33647 ft | 387 kts | 296° |
| 2026-05-09 20:03 | 44.11102 | -83.92232 | 33649 ft | 388 kts | 294° |
| 2026-05-09 20:04 | 44.13478 | -83.98995 | 33652 ft | 389 kts | 294° |
| 2026-05-09 20:04 | 44.15836 | -84.05789 | 33656 ft | 391 kts | 294° |